sensor_id;sensor_type;location;lat;lon;timestamp;P1;durP1;ratioP1;P2;durP2;ratioP2
22826;SDS011;11580;52.562;13.418;2022-07-29T00:00:52;4.37;;;3.97;;
22826;SDS011;11580;52.562;13.418;2022-07-29T00:03:19;4.30;;;3.80;;
22826;SDS011;11580;52.562;13.418;2022-07-29T00:05:47;5.30;;;3.63;;
22826;SDS011;11580;52.562;13.418;2022-07-29T00:08:14;4.50;;;3.47;;
22826;SDS011;11580;52.562;13.418;2022-07-29T00:10:41;5.27;;;3.73;;
22826;SDS011;11580;52.562;13.418;2022-07-29T00:13:08;3.80;;;3.50;;
22826;SDS011;11580;52.562;13.418;2022-07-29T00:15:37;4.97;;;4.13;;
22826;SDS011;11580;52.562;13.418;2022-07-29T00:18:04;4.47;;;4.17;;
22826;SDS011;11580;52.562;13.418;2022-07-29T00:20:32;5.63;;;3.90;;
22826;SDS011;11580;52.562;13.418;2022-07-29T00:22:59;8.60;;;4.20;;
22826;SDS011;11580;52.562;13.418;2022-07-29T00:25:26;3.90;;;3.50;;
22826;SDS011;11580;52.562;13.418;2022-07-29T00:27:54;4.67;;;4.37;;
22826;SDS011;11580;52.562;13.418;2022-07-29T00:30:21;3.80;;;3.50;;
22826;SDS011;11580;52.562;13.418;2022-07-29T00:32:50;4.93;;;4.27;;
22826;SDS011;11580;52.562;13.418;2022-07-29T00:35:17;5.80;;;4.47;;
22826;SDS011;11580;52.562;13.418;2022-07-29T00:38:02;4.40;;;4.10;;
22826;SDS011;11580;52.562;13.418;2022-07-29T00:40:29;4.50;;;4.10;;
22826;SDS011;11580;52.562;13.418;2022-07-29T00:42:56;4.37;;;3.93;;
22826;SDS011;11580;52.562;13.418;2022-07-29T00:45:24;4.50;;;4.17;;
22826;SDS011;11580;52.562;13.418;2022-07-29T00:47:52;4.70;;;4.30;;
22826;SDS011;11580;52.562;13.418;2022-07-29T00:50:20;3.80;;;3.50;;
22826;SDS011;11580;52.562;13.418;2022-07-29T00:52:47;4.83;;;4.43;;
22826;SDS011;11580;52.562;13.418;2022-07-29T00:55:15;4.67;;;3.73;;
22826;SDS011;11580;52.562;13.418;2022-07-29T00:57:43;3.77;;;3.50;;
22826;SDS011;11580;52.562;13.418;2022-07-29T01:00:14;4.80;;;4.03;;
22826;SDS011;11580;52.562;13.418;2022-07-29T01:02:44;4.13;;;3.73;;
22826;SDS011;11580;52.562;13.418;2022-07-29T01:05:15;4.40;;;4.00;;
22826;SDS011;11580;52.562;13.418;2022-07-29T01:07:46;4.00;;;3.70;;
22826;SDS011;11580;52.562;13.418;2022-07-29T01:10:19;4.40;;;3.67;;
22826;SDS011;11580;52.562;13.418;2022-07-29T01:12:47;3.70;;;3.40;;
22826;SDS011;11580;52.562;13.418;2022-07-29T01:15:18;5.90;;;4.70;;
22826;SDS011;11580;52.562;13.418;2022-07-29T01:17:49;7.27;;;4.57;;
22826;SDS011;11580;52.562;13.418;2022-07-29T01:20:31;4.40;;;3.80;;
22826;SDS011;11580;52.562;13.418;2022-07-29T01:23:40;5.03;;;4.30;;
22826;SDS011;11580;52.562;13.418;2022-07-29T01:26:33;4.20;;;3.90;;
22826;SDS011;11580;52.562;13.418;2022-07-29T01:29:15;4.10;;;3.70;;
22826;SDS011;11580;52.562;13.418;2022-07-29T01:31:51;4.97;;;3.83;;
22826;SDS011;11580;52.562;13.418;2022-07-29T01:34:27;4.00;;;3.70;;
22826;SDS011;11580;52.562;13.418;2022-07-29T01:37:06;4.10;;;3.70;;
22826;SDS011;11580;52.562;13.418;2022-07-29T01:39:47;4.23;;;3.83;;
22826;SDS011;11580;52.562;13.418;2022-07-29T01:42:20;4.27;;;3.60;;
22826;SDS011;11580;52.562;13.418;2022-07-29T01:45:01;4.40;;;3.60;;
22826;SDS011;11580;52.562;13.418;2022-07-29T01:47:37;4.53;;;4.10;;
22826;SDS011;11580;52.562;13.418;2022-07-29T01:50:12;3.97;;;3.67;;
22826;SDS011;11580;52.562;13.418;2022-07-29T01:52:44;4.30;;;3.93;;
22826;SDS011;11580;52.562;13.418;2022-07-29T01:55:20;4.37;;;3.43;;
22826;SDS011;11580;52.562;13.418;2022-07-29T01:57:54;3.67;;;3.37;;
22826;SDS011;11580;52.562;13.418;2022-07-29T02:00:26;4.37;;;3.97;;
22826;SDS011;11580;52.562;13.418;2022-07-29T02:02:58;4.10;;;3.70;;
22826;SDS011;11580;52.562;13.418;2022-07-29T02:05:30;4.80;;;4.40;;
22826;SDS011;11580;52.562;13.418;2022-07-29T02:07:59;4.20;;;3.90;;
22826;SDS011;11580;52.562;13.418;2022-07-29T02:10:29;3.80;;;3.60;;
22826;SDS011;11580;52.562;13.418;2022-07-29T02:13:00;4.07;;;3.40;;
22826;SDS011;11580;52.562;13.418;2022-07-29T02:15:32;4.53;;;4.13;;
22826;SDS011;11580;52.562;13.418;2022-07-29T02:18:02;3.30;;;3.10;;
22826;SDS011;11580;52.562;13.418;2022-07-29T02:20:36;3.80;;;3.40;;
22826;SDS011;11580;52.562;13.418;2022-07-29T02:23:06;3.23;;;3.03;;
22826;SDS011;11580;52.562;13.418;2022-07-29T02:25:37;3.80;;;3.50;;
22826;SDS011;11580;52.562;13.418;2022-07-29T02:28:08;6.97;;;3.20;;
22826;SDS011;11580;52.562;13.418;2022-07-29T02:30:38;6.00;;;3.87;;
22826;SDS011;11580;52.562;13.418;2022-07-29T02:33:09;4.00;;;3.70;;
22826;SDS011;11580;52.562;13.418;2022-07-29T02:35:41;4.10;;;3.70;;
22826;SDS011;11580;52.562;13.418;2022-07-29T02:38:12;3.73;;;3.40;;
22826;SDS011;11580;52.562;13.418;2022-07-29T02:41:00;5.70;;;3.67;;
22826;SDS011;11580;52.562;13.418;2022-07-29T02:43:31;4.20;;;3.80;;
22826;SDS011;11580;52.562;13.418;2022-07-29T02:46:04;4.63;;;3.43;;
22826;SDS011;11580;52.562;13.418;2022-07-29T02:48:38;3.63;;;3.37;;
22826;SDS011;11580;52.562;13.418;2022-07-29T02:51:13;3.97;;;3.67;;
22826;SDS011;11580;52.562;13.418;2022-07-29T02:53:53;4.43;;;4.03;;
22826;SDS011;11580;52.562;13.418;2022-07-29T02:56:28;3.80;;;3.40;;
22826;SDS011;11580;52.562;13.418;2022-07-29T02:59:03;3.40;;;3.10;;
22826;SDS011;11580;52.562;13.418;2022-07-29T03:01:37;3.40;;;3.17;;
22826;SDS011;11580;52.562;13.418;2022-07-29T03:04:09;3.40;;;3.10;;
22826;SDS011;11580;52.562;13.418;2022-07-29T03:06:40;3.63;;;3.33;;
22826;SDS011;11580;52.562;13.418;2022-07-29T03:09:10;3.53;;;3.20;;
22826;SDS011;11580;52.562;13.418;2022-07-29T03:11:39;4.60;;;3.70;;
22826;SDS011;11580;52.562;13.418;2022-07-29T03:14:09;3.63;;;3.33;;
22826;SDS011;11580;52.562;13.418;2022-07-29T03:16:38;3.40;;;2.90;;
22826;SDS011;11580;52.562;13.418;2022-07-29T03:19:06;3.70;;;3.40;;
22826;SDS011;11580;52.562;13.418;2022-07-29T03:21:34;3.50;;;3.20;;
22826;SDS011;11580;52.562;13.418;2022-07-29T03:24:01;3.53;;;3.23;;
22826;SDS011;11580;52.562;13.418;2022-07-29T03:26:29;3.40;;;3.10;;
22826;SDS011;11580;52.562;13.418;2022-07-29T03:28:56;5.57;;;3.60;;
22826;SDS011;11580;52.562;13.418;2022-07-29T03:31:23;3.80;;;3.50;;
22826;SDS011;11580;52.562;13.418;2022-07-29T03:33:52;3.80;;;3.40;;
22826;SDS011;11580;52.562;13.418;2022-07-29T03:36:19;3.50;;;3.20;;
22826;SDS011;11580;52.562;13.418;2022-07-29T03:38:46;3.63;;;3.00;;
22826;SDS011;11580;52.562;13.418;2022-07-29T03:41:15;3.57;;;3.27;;
22826;SDS011;11580;52.562;13.418;2022-07-29T03:43:44;3.73;;;3.43;;
22826;SDS011;11580;52.562;13.418;2022-07-29T03:46:17;5.43;;;3.30;;
22826;SDS011;11580;52.562;13.418;2022-07-29T03:48:49;3.73;;;3.47;;
22826;SDS011;11580;52.562;13.418;2022-07-29T03:51:24;5.43;;;3.67;;
22826;SDS011;11580;52.562;13.418;2022-07-29T03:53:52;3.77;;;3.50;;
22826;SDS011;11580;52.562;13.418;2022-07-29T03:56:20;3.80;;;3.50;;
22826;SDS011;11580;52.562;13.418;2022-07-29T03:58:49;3.87;;;3.57;;
22826;SDS011;11580;52.562;13.418;2022-07-29T04:01:18;3.90;;;3.60;;
22826;SDS011;11580;52.562;13.418;2022-07-29T04:03:47;4.70;;;3.57;;
22826;SDS011;11580;52.562;13.418;2022-07-29T04:06:16;3.70;;;3.40;;
22826;SDS011;11580;52.562;13.418;2022-07-29T04:08:43;3.20;;;3.00;;
22826;SDS011;11580;52.562;13.418;2022-07-29T04:11:10;4.63;;;3.80;;
22826;SDS011;11580;52.562;13.418;2022-07-29T04:13:38;3.57;;;3.23;;
22826;SDS011;11580;52.562;13.418;2022-07-29T04:16:06;3.67;;;3.30;;
22826;SDS011;11580;52.562;13.418;2022-07-29T04:18:33;3.50;;;3.20;;
22826;SDS011;11580;52.562;13.418;2022-07-29T04:21:00;3.70;;;3.30;;
22826;SDS011;11580;52.562;13.418;2022-07-29T04:23:30;4.30;;;3.70;;
22826;SDS011;11580;52.562;13.418;2022-07-29T04:25:58;6.70;;;4.10;;
22826;SDS011;11580;52.562;13.418;2022-07-29T04:28:26;4.33;;;3.80;;
22826;SDS011;11580;52.562;13.418;2022-07-29T04:30:53;5.60;;;3.30;;
22826;SDS011;11580;52.562;13.418;2022-07-29T04:33:21;4.53;;;4.10;;
22826;SDS011;11580;52.562;13.418;2022-07-29T04:35:48;5.13;;;3.70;;
22826;SDS011;11580;52.562;13.418;2022-07-29T04:38:15;5.17;;;3.37;;
22826;SDS011;11580;52.562;13.418;2022-07-29T04:40:44;4.60;;;4.10;;
22826;SDS011;11580;52.562;13.418;2022-07-29T04:43:11;4.57;;;3.80;;
22826;SDS011;11580;52.562;13.418;2022-07-29T04:45:38;6.03;;;3.90;;
22826;SDS011;11580;52.562;13.418;2022-07-29T04:48:05;5.37;;;3.97;;
22826;SDS011;11580;52.562;13.418;2022-07-29T04:50:33;4.67;;;3.80;;
22826;SDS011;11580;52.562;13.418;2022-07-29T04:53:00;4.00;;;3.40;;
22826;SDS011;11580;52.562;13.418;2022-07-29T04:55:27;4.93;;;3.60;;
22826;SDS011;11580;52.562;13.418;2022-07-29T04:57:56;4.90;;;3.93;;
22826;SDS011;11580;52.562;13.418;2022-07-29T05:00:23;3.80;;;3.50;;
22826;SDS011;11580;52.562;13.418;2022-07-29T05:02:50;3.93;;;3.53;;
22826;SDS011;11580;52.562;13.418;2022-07-29T05:05:18;5.23;;;3.33;;
22826;SDS011;11580;52.562;13.418;2022-07-29T05:07:45;3.80;;;3.07;;
22826;SDS011;11580;52.562;13.418;2022-07-29T05:10:12;3.77;;;3.40;;
22826;SDS011;11580;52.562;13.418;2022-07-29T05:12:40;8.70;;;3.90;;
22826;SDS011;11580;52.562;13.418;2022-07-29T05:15:09;3.90;;;3.50;;
22826;SDS011;11580;52.562;13.418;2022-07-29T05:17:36;5.10;;;3.40;;
22826;SDS011;11580;52.562;13.418;2022-07-29T05:20:04;3.70;;;3.40;;
22826;SDS011;11580;52.562;13.418;2022-07-29T05:22:33;3.37;;;3.17;;
22826;SDS011;11580;52.562;13.418;2022-07-29T05:25:00;3.80;;;3.50;;
22826;SDS011;11580;52.562;13.418;2022-07-29T05:27:27;7.30;;;3.53;;
22826;SDS011;11580;52.562;13.418;2022-07-29T05:29:55;3.53;;;3.20;;
22826;SDS011;11580;52.562;13.418;2022-07-29T05:32:23;3.40;;;3.10;;
22826;SDS011;11580;52.562;13.418;2022-07-29T05:34:51;3.50;;;3.20;;
22826;SDS011;11580;52.562;13.418;2022-07-29T05:37:18;4.27;;;3.40;;
22826;SDS011;11580;52.562;13.418;2022-07-29T05:39:45;6.57;;;4.07;;
22826;SDS011;11580;52.562;13.418;2022-07-29T05:42:13;3.67;;;3.47;;
22826;SDS011;11580;52.562;13.418;2022-07-29T05:44:40;4.47;;;3.37;;
22826;SDS011;11580;52.562;13.418;2022-07-29T05:47:08;3.70;;;3.40;;
22826;SDS011;11580;52.562;13.418;2022-07-29T05:49:36;4.40;;;3.77;;
22826;SDS011;11580;52.562;13.418;2022-07-29T05:52:04;3.87;;;3.50;;
22826;SDS011;11580;52.562;13.418;2022-07-29T05:54:31;3.07;;;2.87;;
22826;SDS011;11580;52.562;13.418;2022-07-29T05:56:58;3.40;;;3.10;;
22826;SDS011;11580;52.562;13.418;2022-07-29T05:59:26;3.43;;;3.13;;
22826;SDS011;11580;52.562;13.418;2022-07-29T06:01:54;4.87;;;3.13;;
22826;SDS011;11580;52.562;13.418;2022-07-29T06:04:22;3.67;;;3.23;;
22826;SDS011;11580;52.562;13.418;2022-07-29T06:06:50;3.37;;;3.13;;
22826;SDS011;11580;52.562;13.418;2022-07-29T06:09:18;3.90;;;3.23;;
22826;SDS011;11580;52.562;13.418;2022-07-29T06:11:45;4.63;;;3.60;;
22826;SDS011;11580;52.562;13.418;2022-07-29T06:14:13;4.90;;;3.60;;
22826;SDS011;11580;52.562;13.418;2022-07-29T06:16:40;3.10;;;2.90;;
22826;SDS011;11580;52.562;13.418;2022-07-29T06:19:08;3.37;;;3.17;;
22826;SDS011;11580;52.562;13.418;2022-07-29T06:21:35;5.40;;;4.13;;
22826;SDS011;11580;52.562;13.418;2022-07-29T06:24:04;3.40;;;3.10;;
22826;SDS011;11580;52.562;13.418;2022-07-29T06:26:32;3.67;;;3.37;;
22826;SDS011;11580;52.562;13.418;2022-07-29T06:29:00;3.70;;;3.40;;
22826;SDS011;11580;52.562;13.418;2022-07-29T06:31:27;5.60;;;3.37;;
22826;SDS011;11580;52.562;13.418;2022-07-29T06:33:54;3.43;;;3.17;;
22826;SDS011;11580;52.562;13.418;2022-07-29T06:36:21;4.27;;;3.23;;
22826;SDS011;11580;52.562;13.418;2022-07-29T06:38:49;3.70;;;3.40;;
22826;SDS011;11580;52.562;13.418;2022-07-29T06:41:17;3.10;;;2.80;;
22826;SDS011;11580;52.562;13.418;2022-07-29T06:43:45;3.70;;;3.40;;
22826;SDS011;11580;52.562;13.418;2022-07-29T06:46:13;3.23;;;3.03;;
22826;SDS011;11580;52.562;13.418;2022-07-29T06:48:42;5.67;;;2.63;;
22826;SDS011;11580;52.562;13.418;2022-07-29T06:51:11;4.47;;;3.50;;
22826;SDS011;11580;52.562;13.418;2022-07-29T06:53:39;4.53;;;3.40;;
22826;SDS011;11580;52.562;13.418;2022-07-29T06:56:06;4.00;;;3.70;;
22826;SDS011;11580;52.562;13.418;2022-07-29T06:58:36;3.90;;;3.50;;
22826;SDS011;11580;52.562;13.418;2022-07-29T07:01:04;3.40;;;3.20;;
22826;SDS011;11580;52.562;13.418;2022-07-29T07:03:32;5.47;;;3.37;;
22826;SDS011;11580;52.562;13.418;2022-07-29T07:05:59;3.40;;;3.10;;
22826;SDS011;11580;52.562;13.418;2022-07-29T07:08:27;4.23;;;2.83;;
22826;SDS011;11580;52.562;13.418;2022-07-29T07:10:54;5.57;;;3.97;;
22826;SDS011;11580;52.562;13.418;2022-07-29T07:13:22;4.03;;;3.40;;
22826;SDS011;11580;52.562;13.418;2022-07-29T07:15:51;3.20;;;3.00;;
22826;SDS011;11580;52.562;13.418;2022-07-29T07:18:18;3.73;;;3.00;;
22826;SDS011;11580;52.562;13.418;2022-07-29T07:20:45;3.40;;;3.10;;
22826;SDS011;11580;52.562;13.418;2022-07-29T07:23:13;3.30;;;3.00;;
22826;SDS011;11580;52.562;13.418;2022-07-29T07:25:41;2.90;;;2.60;;
22826;SDS011;11580;52.562;13.418;2022-07-29T07:28:08;2.90;;;2.70;;
22826;SDS011;11580;52.562;13.418;2022-07-29T07:30:35;4.23;;;2.80;;
22826;SDS011;11580;52.562;13.418;2022-07-29T07:33:04;2.83;;;2.50;;
22826;SDS011;11580;52.562;13.418;2022-07-29T07:35:32;4.67;;;3.10;;
22826;SDS011;11580;52.562;13.418;2022-07-29T07:37:59;3.40;;;3.10;;
22826;SDS011;11580;52.562;13.418;2022-07-29T07:40:26;3.83;;;2.83;;
22826;SDS011;11580;52.562;13.418;2022-07-29T07:42:54;5.97;;;3.13;;
22826;SDS011;11580;52.562;13.418;2022-07-29T07:45:21;3.17;;;2.77;;
22826;SDS011;11580;52.562;13.418;2022-07-29T07:47:49;3.03;;;2.70;;
22826;SDS011;11580;52.562;13.418;2022-07-29T07:50:17;3.60;;;2.80;;
22826;SDS011;11580;52.562;13.418;2022-07-29T07:52:48;4.97;;;2.70;;
22826;SDS011;11580;52.562;13.418;2022-07-29T07:55:18;2.50;;;2.30;;
22826;SDS011;11580;52.562;13.418;2022-07-29T07:57:46;3.60;;;2.47;;
22826;SDS011;11580;52.562;13.418;2022-07-29T08:00:14;2.83;;;2.57;;
22826;SDS011;11580;52.562;13.418;2022-07-29T08:02:43;2.57;;;2.30;;
22826;SDS011;11580;52.562;13.418;2022-07-29T08:05:11;4.50;;;2.60;;
22826;SDS011;11580;52.562;13.418;2022-07-29T08:07:43;3.20;;;2.90;;
22826;SDS011;11580;52.562;13.418;2022-07-29T08:10:12;2.30;;;2.10;;
22826;SDS011;11580;52.562;13.418;2022-07-29T08:12:40;3.27;;;2.97;;
22826;SDS011;11580;52.562;13.418;2022-07-29T08:15:07;3.70;;;2.57;;
22826;SDS011;11580;52.562;13.418;2022-07-29T08:17:35;4.70;;;2.97;;
22826;SDS011;11580;52.562;13.418;2022-07-29T08:20:03;2.47;;;2.27;;
22826;SDS011;11580;52.562;13.418;2022-07-29T08:22:31;2.40;;;2.20;;
22826;SDS011;11580;52.562;13.418;2022-07-29T08:25:00;2.60;;;2.40;;
22826;SDS011;11580;52.562;13.418;2022-07-29T08:27:27;3.03;;;2.50;;
22826;SDS011;11580;52.562;13.418;2022-07-29T08:29:56;4.47;;;2.50;;
22826;SDS011;11580;52.562;13.418;2022-07-29T08:32:23;2.87;;;2.67;;
22826;SDS011;11580;52.562;13.418;2022-07-29T08:34:50;2.67;;;2.47;;
22826;SDS011;11580;52.562;13.418;2022-07-29T08:37:18;5.33;;;2.47;;
22826;SDS011;11580;52.562;13.418;2022-07-29T08:39:45;4.03;;;2.20;;
22826;SDS011;11580;52.562;13.418;2022-07-29T08:42:14;2.77;;;2.07;;
22826;SDS011;11580;52.562;13.418;2022-07-29T08:44:42;2.30;;;2.10;;
22826;SDS011;11580;52.562;13.418;2022-07-29T08:47:09;5.37;;;3.37;;
22826;SDS011;11580;52.562;13.418;2022-07-29T08:49:40;2.23;;;2.00;;
22826;SDS011;11580;52.562;13.418;2022-07-29T08:52:09;3.20;;;2.80;;
22826;SDS011;11580;52.562;13.418;2022-07-29T08:54:37;2.60;;;2.40;;
22826;SDS011;11580;52.562;13.418;2022-07-29T08:57:07;4.83;;;2.70;;
22826;SDS011;11580;52.562;13.418;2022-07-29T08:59:35;3.17;;;2.93;;
22826;SDS011;11580;52.562;13.418;2022-07-29T09:02:06;2.87;;;2.63;;
22826;SDS011;11580;52.562;13.418;2022-07-29T09:04:45;3.77;;;2.43;;
22826;SDS011;11580;52.562;13.418;2022-07-29T09:07:14;2.70;;;2.50;;
22826;SDS011;11580;52.562;13.418;2022-07-29T09:09:43;2.40;;;2.20;;
22826;SDS011;11580;52.562;13.418;2022-07-29T09:12:11;2.80;;;2.30;;
22826;SDS011;11580;52.562;13.418;2022-07-29T09:14:40;2.60;;;2.40;;
22826;SDS011;11580;52.562;13.418;2022-07-29T09:17:08;4.30;;;2.00;;
22826;SDS011;11580;52.562;13.418;2022-07-29T09:19:36;2.53;;;2.20;;
22826;SDS011;11580;52.562;13.418;2022-07-29T09:22:04;2.37;;;2.17;;
22826;SDS011;11580;52.562;13.418;2022-07-29T09:24:42;2.93;;;2.63;;
22826;SDS011;11580;52.562;13.418;2022-07-29T09:27:21;2.87;;;2.33;;
22826;SDS011;11580;52.562;13.418;2022-07-29T09:29:59;2.93;;;2.00;;
22826;SDS011;11580;52.562;13.418;2022-07-29T09:32:30;2.27;;;2.17;;
22826;SDS011;11580;52.562;13.418;2022-07-29T09:35:14;2.47;;;2.37;;
22826;SDS011;11580;52.562;13.418;2022-07-29T09:37:45;2.83;;;2.63;;
22826;SDS011;11580;52.562;13.418;2022-07-29T09:40:14;4.73;;;2.53;;
22826;SDS011;11580;52.562;13.418;2022-07-29T09:42:43;2.10;;;1.87;;
22826;SDS011;11580;52.562;13.418;2022-07-29T09:45:13;4.03;;;2.20;;
22826;SDS011;11580;52.562;13.418;2022-07-29T09:47:55;2.53;;;2.33;;
22826;SDS011;11580;52.562;13.418;2022-07-29T09:50:34;2.07;;;1.83;;
22826;SDS011;11580;52.562;13.418;2022-07-29T09:53:03;2.13;;;1.93;;
22826;SDS011;11580;52.562;13.418;2022-07-29T09:55:31;2.40;;;1.67;;
22826;SDS011;11580;52.562;13.418;2022-07-29T10:00:45;2.17;;;2.07;;
22826;SDS011;11580;52.562;13.418;2022-07-29T10:03:14;2.33;;;2.07;;
22826;SDS011;11580;52.562;13.418;2022-07-29T10:05:43;2.67;;;2.47;;
22826;SDS011;11580;52.562;13.418;2022-07-29T10:08:12;3.53;;;2.20;;
22826;SDS011;11580;52.562;13.418;2022-07-29T10:10:40;2.90;;;2.30;;
22826;SDS011;11580;52.562;13.418;2022-07-29T10:13:11;5.23;;;2.20;;
22826;SDS011;11580;52.562;13.418;2022-07-29T10:15:40;2.83;;;2.40;;
22826;SDS011;11580;52.562;13.418;2022-07-29T10:18:13;2.20;;;1.83;;
22826;SDS011;11580;52.562;13.418;2022-07-29T10:20:42;2.17;;;1.97;;
22826;SDS011;11580;52.562;13.418;2022-07-29T10:23:09;5.10;;;2.17;;
22826;SDS011;11580;52.562;13.418;2022-07-29T10:25:37;2.07;;;1.93;;
22826;SDS011;11580;52.562;13.418;2022-07-29T10:28:05;2.20;;;2.00;;
22826;SDS011;11580;52.562;13.418;2022-07-29T10:30:32;1.97;;;1.83;;
22826;SDS011;11580;52.562;13.418;2022-07-29T10:33:21;2.10;;;2.00;;
22826;SDS011;11580;52.562;13.418;2022-07-29T10:36:16;2.60;;;2.07;;
22826;SDS011;11580;52.562;13.418;2022-07-29T10:39:00;2.73;;;1.87;;
22826;SDS011;11580;52.562;13.418;2022-07-29T10:41:47;2.10;;;2.00;;
22826;SDS011;11580;52.562;13.418;2022-07-29T10:44:28;2.20;;;1.90;;
22826;SDS011;11580;52.562;13.418;2022-07-29T10:46:56;4.00;;;1.87;;
22826;SDS011;11580;52.562;13.418;2022-07-29T10:49:25;2.73;;;2.10;;
22826;SDS011;11580;52.562;13.418;2022-07-29T10:51:56;2.30;;;2.03;;
22826;SDS011;11580;52.562;13.418;2022-07-29T10:54:42;2.23;;;2.13;;
22826;SDS011;11580;52.562;13.418;2022-07-29T10:57:19;2.27;;;2.07;;
22826;SDS011;11580;52.562;13.418;2022-07-29T11:02:58;2.07;;;1.83;;
22826;SDS011;11580;52.562;13.418;2022-07-29T11:05:27;2.13;;;2.03;;
22826;SDS011;11580;52.562;13.418;2022-07-29T11:10:46;3.43;;;2.07;;
22826;SDS011;11580;52.562;13.418;2022-07-29T11:16:16;2.43;;;2.03;;
22826;SDS011;11580;52.562;13.418;2022-07-29T11:21:49;2.93;;;2.03;;
22826;SDS011;11580;52.562;13.418;2022-07-29T11:24:18;2.03;;;1.93;;
22826;SDS011;11580;52.562;13.418;2022-07-29T11:29:38;2.07;;;1.93;;
22826;SDS011;11580;52.562;13.418;2022-07-29T11:32:16;2.43;;;2.17;;
22826;SDS011;11580;52.562;13.418;2022-07-29T11:34:46;2.70;;;2.27;;
22826;SDS011;11580;52.562;13.418;2022-07-29T11:37:19;2.27;;;1.90;;
22826;SDS011;11580;52.562;13.418;2022-07-29T11:42:44;2.50;;;2.30;;
22826;SDS011;11580;52.562;13.418;2022-07-29T11:45:14;2.50;;;2.20;;
22826;SDS011;11580;52.562;13.418;2022-07-29T11:47:48;2.23;;;2.00;;
22826;SDS011;11580;52.562;13.418;2022-07-29T11:50:26;2.50;;;2.30;;
22826;SDS011;11580;52.562;13.418;2022-07-29T11:52:59;2.37;;;2.13;;
22826;SDS011;11580;52.562;13.418;2022-07-29T11:55:28;2.77;;;2.57;;
22826;SDS011;11580;52.562;13.418;2022-07-29T11:57:57;2.37;;;2.17;;
22826;SDS011;11580;52.562;13.418;2022-07-29T12:00:28;2.40;;;2.20;;
22826;SDS011;11580;52.562;13.418;2022-07-29T12:02:58;2.20;;;2.10;;
22826;SDS011;11580;52.562;13.418;2022-07-29T12:05:35;2.50;;;2.30;;
22826;SDS011;11580;52.562;13.418;2022-07-29T12:08:11;2.50;;;2.30;;
22826;SDS011;11580;52.562;13.418;2022-07-29T12:10:41;3.10;;;2.73;;
22826;SDS011;11580;52.562;13.418;2022-07-29T12:13:10;2.87;;;2.57;;
22826;SDS011;11580;52.562;13.418;2022-07-29T12:15:39;3.37;;;3.07;;
22826;SDS011;11580;52.562;13.418;2022-07-29T12:18:17;2.70;;;2.50;;
22826;SDS011;11580;52.562;13.418;2022-07-29T12:20:46;3.30;;;3.10;;
22826;SDS011;11580;52.562;13.418;2022-07-29T12:23:16;2.80;;;2.60;;
22826;SDS011;11580;52.562;13.418;2022-07-29T12:25:43;3.57;;;3.30;;
22826;SDS011;11580;52.562;13.418;2022-07-29T12:28:11;2.87;;;2.77;;
22826;SDS011;11580;52.562;13.418;2022-07-29T12:30:44;3.10;;;2.90;;
22826;SDS011;11580;52.562;13.418;2022-07-29T12:33:17;3.10;;;2.90;;
22826;SDS011;11580;52.562;13.418;2022-07-29T12:35:48;3.80;;;3.50;;
22826;SDS011;11580;52.562;13.418;2022-07-29T12:38:20;3.20;;;3.00;;
22826;SDS011;11580;52.562;13.418;2022-07-29T12:40:48;3.70;;;3.50;;
22826;SDS011;11580;52.562;13.418;2022-07-29T12:43:18;3.73;;;3.43;;
22826;SDS011;11580;52.562;13.418;2022-07-29T12:45:48;3.03;;;2.73;;
22826;SDS011;11580;52.562;13.418;2022-07-29T12:48:17;3.13;;;2.93;;
22826;SDS011;11580;52.562;13.418;2022-07-29T12:51:00;3.87;;;3.00;;
22826;SDS011;11580;52.562;13.418;2022-07-29T12:53:31;3.00;;;2.80;;
22826;SDS011;11580;52.562;13.418;2022-07-29T12:55:58;3.30;;;3.10;;
22826;SDS011;11580;52.562;13.418;2022-07-29T12:58:30;3.17;;;2.90;;
22826;SDS011;11580;52.562;13.418;2022-07-29T13:01:02;3.77;;;3.47;;
22826;SDS011;11580;52.562;13.418;2022-07-29T13:03:45;3.30;;;3.00;;
22826;SDS011;11580;52.562;13.418;2022-07-29T13:06:28;3.83;;;3.10;;
22826;SDS011;11580;52.562;13.418;2022-07-29T13:09:06;3.20;;;3.00;;
22826;SDS011;11580;52.562;13.418;2022-07-29T13:11:39;3.10;;;2.90;;
22826;SDS011;11580;52.562;13.418;2022-07-29T13:14:09;3.30;;;3.00;;
22826;SDS011;11580;52.562;13.418;2022-07-29T13:19:32;4.20;;;3.43;;
22826;SDS011;11580;52.562;13.418;2022-07-29T13:22:02;3.53;;;2.97;;
22826;SDS011;11580;52.562;13.418;2022-07-29T13:24:32;3.10;;;2.90;;
22826;SDS011;11580;52.562;13.418;2022-07-29T13:26:59;4.17;;;3.87;;
22826;SDS011;11580;52.562;13.418;2022-07-29T13:29:27;3.60;;;3.30;;
22826;SDS011;11580;52.562;13.418;2022-07-29T13:31:54;3.27;;;3.07;;
22826;SDS011;11580;52.562;13.418;2022-07-29T13:34:22;3.93;;;3.63;;
22826;SDS011;11580;52.562;13.418;2022-07-29T13:36:49;3.23;;;3.03;;
22826;SDS011;11580;52.562;13.418;2022-07-29T13:39:17;3.20;;;3.00;;
22826;SDS011;11580;52.562;13.418;2022-07-29T13:41:45;3.67;;;3.20;;
22826;SDS011;11580;52.562;13.418;2022-07-29T13:44:12;3.60;;;3.40;;
22826;SDS011;11580;52.562;13.418;2022-07-29T13:46:40;3.30;;;3.00;;
22826;SDS011;11580;52.562;13.418;2022-07-29T13:49:07;4.13;;;3.70;;
22826;SDS011;11580;52.562;13.418;2022-07-29T13:51:35;3.83;;;3.53;;
22826;SDS011;11580;52.562;13.418;2022-07-29T13:54:02;3.50;;;3.30;;
22826;SDS011;11580;52.562;13.418;2022-07-29T13:56:30;3.60;;;3.40;;
22826;SDS011;11580;52.562;13.418;2022-07-29T13:58:59;3.30;;;3.10;;
22826;SDS011;11580;52.562;13.418;2022-07-29T14:01:26;3.87;;;3.63;;
22826;SDS011;11580;52.562;13.418;2022-07-29T14:03:55;3.77;;;3.57;;
22826;SDS011;11580;52.562;13.418;2022-07-29T14:06:22;3.30;;;3.10;;
22826;SDS011;11580;52.562;13.418;2022-07-29T14:08:49;3.30;;;3.10;;
22826;SDS011;11580;52.562;13.418;2022-07-29T14:11:17;3.80;;;3.50;;
22826;SDS011;11580;52.562;13.418;2022-07-29T14:13:44;3.40;;;3.10;;
22826;SDS011;11580;52.562;13.418;2022-07-29T14:16:13;3.97;;;3.57;;
22826;SDS011;11580;52.562;13.418;2022-07-29T14:18:41;3.63;;;3.43;;
22826;SDS011;11580;52.562;13.418;2022-07-29T14:21:08;4.37;;;3.67;;
22826;SDS011;11580;52.562;13.418;2022-07-29T14:23:36;3.97;;;3.67;;
22826;SDS011;11580;52.562;13.418;2022-07-29T14:26:03;3.80;;;3.60;;
22826;SDS011;11580;52.562;13.418;2022-07-29T14:28:30;4.63;;;4.23;;
22826;SDS011;11580;52.562;13.418;2022-07-29T14:30:57;3.23;;;3.03;;
22826;SDS011;11580;52.562;13.418;2022-07-29T14:33:26;3.60;;;3.30;;
22826;SDS011;11580;52.562;13.418;2022-07-29T14:35:53;3.90;;;3.53;;
22826;SDS011;11580;52.562;13.418;2022-07-29T14:38:20;3.57;;;3.37;;
22826;SDS011;11580;52.562;13.418;2022-07-29T14:40:48;4.07;;;3.77;;
22826;SDS011;11580;52.562;13.418;2022-07-29T14:43:15;3.97;;;3.67;;
22826;SDS011;11580;52.562;13.418;2022-07-29T14:45:42;3.77;;;3.47;;
22826;SDS011;11580;52.562;13.418;2022-07-29T14:48:09;4.73;;;3.50;;
22826;SDS011;11580;52.562;13.418;2022-07-29T14:50:38;3.80;;;3.50;;
22826;SDS011;11580;52.562;13.418;2022-07-29T14:53:06;3.93;;;3.60;;
22826;SDS011;11580;52.562;13.418;2022-07-29T14:55:33;4.17;;;3.80;;
22826;SDS011;11580;52.562;13.418;2022-07-29T14:58:00;3.70;;;3.47;;
22826;SDS011;11580;52.562;13.418;2022-07-29T15:00:27;3.47;;;3.23;;
22826;SDS011;11580;52.562;13.418;2022-07-29T15:02:57;3.20;;;2.90;;
22826;SDS011;11580;52.562;13.418;2022-07-29T15:05:24;3.70;;;3.50;;
22826;SDS011;11580;52.562;13.418;2022-07-29T15:07:53;3.90;;;3.60;;
22826;SDS011;11580;52.562;13.418;2022-07-29T15:10:20;3.80;;;3.60;;
22826;SDS011;11580;52.562;13.418;2022-07-29T15:12:48;3.50;;;3.30;;